createdAt,value
2024-02-24T00:00:26.099Z,-0.67
2024-02-24T00:01:29.096Z,-0.72
2024-02-24T00:02:31.049Z,-0.71
2024-02-24T00:03:33.989Z,-0.69
2024-02-24T00:04:36.007Z,-0.75
2024-02-24T00:05:39.082Z,-0.80
2024-02-24T00:06:41.145Z,-0.85
2024-02-24T00:07:44.130Z,-0.89
2024-02-24T00:08:46.145Z,-0.95
2024-02-24T00:09:49.067Z,-0.99
2024-02-24T00:10:52.486Z,-1.02
2024-02-24T00:11:55.495Z,-1.15
2024-02-24T00:12:57.511Z,-0.98
2024-02-24T00:14:00.503Z,-1.04
2024-02-24T00:15:02.494Z,-0.98
2024-02-24T00:16:05.269Z,-0.86
2024-02-24T00:17:08.200Z,-0.80
2024-02-24T00:18:10.251Z,-0.83
2024-02-24T00:19:13.229Z,-0.83
2024-02-24T00:20:15.272Z,-0.81
2024-02-24T00:21:18.243Z,-0.85
2024-02-24T00:22:20.193Z,-0.89
2024-02-24T00:23:24.241Z,-0.90
2024-02-24T00:24:26.235Z,-0.92
2024-02-24T00:25:29.130Z,-0.97
2024-02-24T00:26:32.491Z,-0.95
2024-02-24T00:27:34.538Z,-1.00
2024-02-24T00:28:37.495Z,-1.02
2024-02-24T00:29:39.648Z,-1.05
2024-02-24T00:30:42.680Z,-1.02
2024-02-24T00:31:44.642Z,-0.98
2024-02-24T00:32:46.682Z,-0.99
2024-02-24T00:33:49.779Z,-0.99
2024-02-24T00:34:51.759Z,-1.04
2024-02-24T00:35:54.699Z,-1.07
2024-02-24T00:36:56.668Z,-1.06
2024-02-24T00:37:59.020Z,-1.09
2024-02-24T00:39:01.947Z,-1.11
2024-02-24T00:40:04.515Z,-1.07
2024-02-24T00:41:07.548Z,-1.08
2024-02-24T00:42:10.919Z,-1.11
2024-02-24T00:43:13.978Z,-1.20
2024-02-24T00:44:16.021Z,-1.20
2024-02-24T00:45:19.610Z,-1.25
2024-02-24T00:46:21.575Z,-1.31
2024-02-24T00:47:24.536Z,-1.31
2024-02-24T00:48:27.085Z,-1.28
2024-02-24T00:49:30.733Z,-1.24
2024-02-24T00:50:32.982Z,-1.23
2024-02-24T00:51:35.927Z,-1.28
2024-02-24T00:52:38.007Z,-1.29
2024-02-24T00:53:41.212Z,-1.29
2024-02-24T00:54:45.605Z,-1.35
2024-02-24T00:55:48.588Z,-1.35
2024-02-24T00:56:50.873Z,-1.42
2024-02-24T00:57:55.458Z,-1.44
2024-02-24T00:58:57.423Z,-1.43
2024-02-24T01:00:00.444Z,-1.43
2024-02-24T01:01:02.513Z,-1.44
2024-02-24T01:02:05.473Z,-1.36
2024-02-24T01:03:07.444Z,-1.34
2024-02-24T01:04:10.449Z,-1.28
2024-02-24T01:05:12.585Z,-1.27
2024-02-24T01:06:15.512Z,-1.29
2024-02-24T01:07:17.530Z,-1.28
2024-02-24T01:08:20.623Z,-1.29
2024-02-24T01:09:22.598Z,-1.36
2024-02-24T01:10:26.248Z,-1.32
2024-02-24T01:11:28.325Z,-1.37
2024-02-24T01:12:31.333Z,-1.36
2024-02-24T01:13:34.670Z,-1.41
2024-02-24T01:14:37.751Z,-1.45
2024-02-24T01:15:40.414Z,-1.47
2024-02-24T01:16:45.488Z,-1.49
2024-02-24T01:17:48.063Z,-1.50
2024-02-24T01:18:51.137Z,-1.51
2024-02-24T01:19:53.167Z,-1.46
2024-02-24T01:20:56.659Z,-1.44
2024-02-24T01:21:59.550Z,-1.44
2024-02-24T01:23:02.644Z,-1.41
2024-02-24T01:24:04.837Z,-1.41
2024-02-24T01:25:08.495Z,-1.39
2024-02-24T01:26:10.434Z,-1.38
2024-02-24T01:27:13.492Z,-1.43
2024-02-24T01:28:15.474Z,-1.43
2024-02-24T01:29:19.771Z,-1.46
2024-02-24T01:30:21.890Z,-1.52
2024-02-24T01:31:24.844Z,-1.56
2024-02-24T01:32:26.890Z,-1.61
2024-02-24T01:33:29.940Z,-1.65
2024-02-24T01:34:32.080Z,-1.70
2024-02-24T01:35:36.528Z,-1.73
2024-02-24T01:36:38.551Z,-1.78
2024-02-24T01:37:41.680Z,-1.78
2024-02-24T01:38:43.750Z,-1.70
2024-02-24T01:39:46.739Z,-1.61
2024-02-24T01:40:48.725Z,-1.54
2024-02-24T01:41:51.803Z,-1.50
2024-02-24T01:42:55.020Z,-1.49
2024-02-24T01:43:58.012Z,-1.47
2024-02-24T01:45:01.915Z,-1.48
2024-02-24T01:46:06.185Z,-1.47
2024-02-24T01:47:09.055Z,-1.48
2024-02-24T01:48:11.996Z,-1.51
2024-02-24T01:49:14.340Z,-1.49
2024-02-24T01:50:17.642Z,-1.46
2024-02-24T01:51:20.084Z,-1.49
2024-02-24T01:52:23.132Z,-1.46
2024-02-24T01:53:25.526Z,-1.46
2024-02-24T01:54:30.133Z,-1.44
2024-02-24T01:55:32.305Z,-1.43
2024-02-24T01:56:37.198Z,-1.47
2024-02-24T01:57:42.631Z,-1.49
2024-02-24T01:58:46.709Z,-1.48
2024-02-24T01:59:49.062Z,-1.52
2024-02-24T02:00:53.576Z,-1.54
2024-02-24T02:01:56.004Z,-1.57
2024-02-24T02:02:59.573Z,-1.54
2024-02-24T02:04:01.887Z,-1.56
2024-02-24T02:05:06.604Z,-1.57
2024-02-24T02:06:09.009Z,-1.53
2024-02-24T02:07:12.247Z,-1.54
2024-02-24T02:08:14.273Z,-1.55
2024-02-24T02:09:17.244Z,-1.50
2024-02-24T02:10:19.270Z,-1.60
2024-02-24T02:11:22.302Z,-1.49
2024-02-24T02:12:24.824Z,-1.54
2024-02-24T02:13:27.936Z,-1.48
2024-02-24T02:14:29.959Z,-1.54
2024-02-24T02:15:31.916Z,-1.59
2024-02-24T02:16:38.197Z,-1.66
2024-02-24T02:17:40.569Z,-1.71
2024-02-24T02:18:43.676Z,-1.69
2024-02-24T02:19:45.716Z,-1.72
2024-02-24T02:20:51.970Z,-1.81
2024-02-24T02:21:56.901Z,-1.81
2024-02-24T02:23:01.283Z,-1.81
2024-02-24T02:24:03.584Z,-1.84
2024-02-24T02:25:07.210Z,-1.81
2024-02-24T02:26:09.380Z,-1.81
2024-02-24T02:27:12.480Z,-1.83
2024-02-24T02:28:14.526Z,-1.85
2024-02-24T02:29:17.461Z,-1.86
2024-02-24T02:30:19.610Z,-1.84
2024-02-24T02:31:22.748Z,-1.74
2024-02-24T02:32:24.812Z,-1.72
2024-02-24T02:33:27.945Z,-1.73
2024-02-24T02:34:30.123Z,-1.72
2024-02-24T02:35:33.338Z,-1.75
2024-02-24T02:36:35.814Z,-1.70
2024-02-24T02:37:38.942Z,-1.70
2024-02-24T02:38:42.313Z,-1.71
2024-02-24T02:39:45.298Z,-1.70
2024-02-24T02:40:47.266Z,-1.68
2024-02-24T02:41:50.190Z,-1.59
2024-02-24T02:42:52.145Z,-1.62
2024-02-24T02:43:55.046Z,-1.81
2024-02-24T02:44:56.985Z,-1.54
2024-02-24T02:45:58.951Z,-1.56
2024-02-24T02:47:05.771Z,-1.58
2024-02-24T02:48:13.501Z,-1.58
2024-02-24T02:49:17.133Z,-1.58
2024-02-24T02:50:19.379Z,-1.59
2024-02-24T02:51:22.293Z,-1.60
2024-02-24T02:52:24.399Z,-1.64
2024-02-24T02:53:27.335Z,-1.68
2024-02-24T02:54:30.636Z,-1.68
2024-02-24T02:55:33.619Z,-1.76
2024-02-24T02:56:35.668Z,-1.66
2024-02-24T02:57:37.697Z,-1.67
2024-02-24T02:58:40.579Z,-1.64
2024-02-24T02:59:42.648Z,-1.59
2024-02-24T03:00:48.215Z,-1.58
2024-02-24T03:01:52.681Z,-1.58
2024-02-24T03:02:55.897Z,-1.61
2024-02-24T03:03:58.284Z,-1.50
2024-02-24T03:05:01.421Z,-1.49
2024-02-24T03:06:03.914Z,-1.43
2024-02-24T03:07:06.905Z,-1.46
2024-02-24T03:08:08.928Z,-1.48
2024-02-24T03:09:11.878Z,-1.46
2024-02-24T03:10:15.248Z,-1.44
2024-02-24T03:11:19.169Z,-1.48
2024-02-24T03:12:21.176Z,-1.53
2024-02-24T03:13:24.203Z,-1.57
2024-02-24T03:14:26.204Z,-1.58
2024-02-24T03:15:29.157Z,-1.61
2024-02-24T03:16:31.336Z,-1.61
2024-02-24T03:17:34.346Z,-1.64
2024-02-24T03:18:36.553Z,-1.65
2024-02-24T03:19:40.264Z,-1.64
2024-02-24T03:20:43.602Z,-1.62
2024-02-24T03:21:45.579Z,-1.63
2024-02-24T03:22:47.508Z,-1.65
2024-02-24T03:23:50.504Z,-1.65
2024-02-24T03:24:53.072Z,-1.59
2024-02-24T03:25:57.339Z,-1.53
2024-02-24T03:26:59.382Z,-1.54
2024-02-24T03:28:02.300Z,-1.85
2024-02-24T03:29:04.298Z,-1.58
2024-02-24T03:30:08.729Z,-1.58
2024-02-24T03:31:10.752Z,-1.58
2024-02-24T03:32:13.843Z,-1.56
2024-02-24T03:33:16.088Z,-1.55
2024-02-24T03:34:19.146Z,-1.55
2024-02-24T03:35:21.127Z,-1.43
2024-02-24T03:36:24.433Z,-1.34
2024-02-24T03:37:26.407Z,-1.32
2024-02-24T03:38:29.370Z,-1.45
2024-02-24T03:39:32.368Z,-1.22
2024-02-24T03:40:35.320Z,-1.21
2024-02-24T03:41:38.669Z,-1.32
2024-02-24T03:42:41.615Z,-1.16
2024-02-24T03:43:46.420Z,-1.12
2024-02-24T03:44:48.442Z,-1.14
2024-02-24T03:45:51.490Z,-1.12
2024-02-24T03:46:53.881Z,-1.19
2024-02-24T03:47:56.910Z,-1.25
2024-02-24T03:48:59.088Z,-1.26
2024-02-24T03:50:02.073Z,-1.27
2024-02-24T03:51:04.549Z,-1.30
2024-02-24T03:52:08.059Z,-1.35
2024-02-24T03:53:10.012Z,-1.38
2024-02-24T03:54:13.070Z,-1.39
2024-02-24T03:55:15.040Z,-1.41
2024-02-24T03:56:18.069Z,-1.45
2024-02-24T03:57:21.427Z,-1.46
2024-02-24T03:58:24.384Z,-1.47
2024-02-24T03:59:26.509Z,-1.48
2024-02-24T04:00:35.990Z,-1.52
2024-02-24T04:01:41.230Z,-1.52
2024-02-24T04:02:45.115Z,-1.46
2024-02-24T04:03:47.258Z,-1.43
2024-02-24T04:04:50.182Z,-1.46
2024-02-24T04:05:52.367Z,-1.42
2024-02-24T04:06:55.480Z,-1.43
2024-02-24T04:07:57.541Z,-1.42
2024-02-24T04:09:00.638Z,-1.40
2024-02-24T04:10:02.716Z,-1.43
2024-02-24T04:11:06.175Z,-1.44
2024-02-24T04:12:08.409Z,-1.44
2024-02-24T04:13:12.980Z,-1.44
2024-02-24T04:14:15.022Z,-1.43
2024-02-24T04:15:20.420Z,-1.47
2024-02-24T04:16:22.345Z,-1.46
2024-02-24T04:17:25.350Z,-1.42
2024-02-24T04:18:27.534Z,-1.44
2024-02-24T04:19:30.561Z,-1.48
2024-02-24T04:20:32.582Z,-1.51
2024-02-24T04:21:34.517Z,-1.45
2024-02-24T04:22:37.500Z,-1.41
2024-02-24T04:23:39.531Z,-1.41
2024-02-24T04:24:42.827Z,-1.41
2024-02-24T04:25:45.208Z,-1.34
2024-02-24T04:26:48.166Z,-1.36
2024-02-24T04:27:50.108Z,-1.36
2024-02-24T04:28:54.432Z,-1.33
2024-02-24T04:29:56.408Z,-1.35
2024-02-24T04:30:59.372Z,-1.34
2024-02-24T04:32:01.303Z,-1.33
2024-02-24T04:33:04.806Z,-1.27
2024-02-24T04:34:07.124Z,-1.25
2024-02-24T04:35:10.419Z,-1.23
2024-02-24T04:36:13.359Z,-1.21
2024-02-24T04:37:15.436Z,-1.16
2024-02-24T04:38:17.482Z,-1.17
2024-02-24T04:39:21.852Z,-1.14
2024-02-24T04:40:23.795Z,-1.16
2024-02-24T04:41:27.347Z,-1.18
2024-02-24T04:42:29.322Z,-1.20
2024-02-24T04:43:35.533Z,-1.23
2024-02-24T04:44:40.587Z,-1.27
2024-02-24T04:45:43.690Z,-1.29
2024-02-24T04:46:45.626Z,-1.30
2024-02-24T04:47:49.009Z,-1.31
2024-02-24T04:48:51.447Z,-1.31
2024-02-24T04:49:54.514Z,-1.33
2024-02-24T04:51:01.072Z,-1.34
2024-02-24T04:52:06.540Z,-1.34
2024-02-24T04:53:08.518Z,-1.35
2024-02-24T04:54:11.521Z,-1.35
2024-02-24T04:55:13.889Z,-1.36
2024-02-24T04:56:18.829Z,-1.41
2024-02-24T04:57:20.831Z,-1.34
2024-02-24T04:58:25.736Z,-1.30
2024-02-24T04:59:28.496Z,-1.28
2024-02-24T05:00:32.895Z,-1.33
2024-02-24T05:01:36.781Z,-1.39
2024-02-24T05:02:39.897Z,-1.45
2024-02-24T05:03:42.353Z,-1.45
2024-02-24T05:04:48.521Z,-1.39
2024-02-24T05:05:50.501Z,-1.43
2024-02-24T05:06:53.493Z,-1.46
2024-02-24T05:07:55.567Z,-1.54
2024-02-24T05:08:58.547Z,-1.58
2024-02-24T05:10:00.629Z,-1.59
2024-02-24T05:11:04.066Z,-1.64
2024-02-24T05:12:06.765Z,-1.59
2024-02-24T05:13:09.798Z,-1.61
2024-02-24T05:14:12.611Z,-1.67
2024-02-24T05:15:17.877Z,-1.64
2024-02-24T05:16:21.191Z,-1.52
2024-02-24T05:17:24.169Z,-1.49
2024-02-24T05:18:26.247Z,-1.52
2024-02-24T05:19:29.248Z,-1.54
2024-02-24T05:20:32.238Z,-1.60
2024-02-24T05:21:35.469Z,-1.59
2024-02-24T05:22:37.403Z,-1.62
2024-02-24T05:23:40.419Z,-1.61
2024-02-24T05:24:42.790Z,-1.62
2024-02-24T05:25:48.525Z,-1.63
2024-02-24T05:26:51.498Z,-1.61
2024-02-24T05:27:54.448Z,-1.67
2024-02-24T05:28:57.829Z,-1.65
2024-02-24T05:29:59.782Z,-1.62
2024-02-24T05:31:02.745Z,-1.65
2024-02-24T05:32:06.917Z,-1.68
2024-02-24T05:33:10.355Z,-1.70
2024-02-24T05:34:12.500Z,-1.76
2024-02-24T05:35:15.846Z,-1.79
2024-02-24T05:36:19.268Z,-1.85
2024-02-24T05:37:22.475Z,-1.87
2024-02-24T05:38:24.469Z,-2.10
2024-02-24T05:39:27.443Z,-1.87
2024-02-24T05:40:29.466Z,-1.89
2024-02-24T05:41:31.570Z,-1.89
2024-02-24T05:42:34.556Z,-1.88
2024-02-24T05:43:36.656Z,-1.84
2024-02-24T05:44:39.664Z,-1.79
2024-02-24T05:45:43.009Z,-1.81
2024-02-24T05:46:45.976Z,-1.81
2024-02-24T05:47:49.403Z,-1.82
2024-02-24T05:48:52.482Z,-1.78
2024-02-24T05:49:54.637Z,-1.77
2024-02-24T05:50:57.663Z,-1.81
2024-02-24T05:51:59.840Z,-1.84
2024-02-24T05:53:02.830Z,-1.88
2024-02-24T05:54:04.910Z,-1.79
2024-02-24T05:55:10.048Z,-1.82
2024-02-24T05:56:12.112Z,-1.83
2024-02-24T05:57:15.135Z,-1.85
2024-02-24T05:58:17.065Z,-1.93
2024-02-24T05:59:20.969Z,-1.94
2024-02-24T06:00:23.165Z,-2.02
2024-02-24T06:01:26.237Z,-2.09
2024-02-24T06:02:28.256Z,-2.07
2024-02-24T06:03:32.622Z,-2.13
2024-02-24T06:04:34.897Z,-2.14
2024-02-24T06:05:38.272Z,-2.13
2024-02-24T06:06:40.295Z,-2.13
2024-02-24T06:07:43.297Z,-2.15
2024-02-24T06:08:45.437Z,-2.17
2024-02-24T06:09:48.422Z,-2.21
2024-02-24T06:10:50.415Z,-2.19
2024-02-24T06:11:53.518Z,-2.14
2024-02-24T06:12:55.764Z,-2.14
2024-02-24T06:13:58.731Z,-2.01
2024-02-24T06:15:00.925Z,-2.01
2024-02-24T06:16:04.596Z,-2.00
2024-02-24T06:17:06.641Z,-1.98
2024-02-24T06:18:09.928Z,-2.01
2024-02-24T06:19:13.356Z,-2.05
2024-02-24T06:20:16.401Z,-2.05
2024-02-24T06:21:19.307Z,-2.01
2024-02-24T06:22:21.421Z,-2.04
2024-02-24T06:23:24.353Z,-2.01
2024-02-24T06:24:26.360Z,-2.00
2024-02-24T06:25:29.289Z,-1.91
2024-02-24T06:26:31.342Z,-1.84
2024-02-24T06:27:34.413Z,-1.83
2024-02-24T06:28:36.628Z,-1.80
2024-02-24T06:29:39.618Z,-1.69
2024-02-24T06:30:41.663Z,-1.68
2024-02-24T06:31:44.569Z,-1.68
2024-02-24T06:32:46.589Z,-1.58
2024-02-24T06:33:49.791Z,-1.61
2024-02-24T06:34:53.366Z,-1.54
2024-02-24T06:35:56.428Z,-1.60
2024-02-24T06:36:58.425Z,-1.45
2024-02-24T06:38:01.378Z,-1.46
2024-02-24T06:39:03.957Z,-1.44
2024-02-24T06:40:11.418Z,-1.46
2024-02-24T06:41:15.599Z,-1.39
2024-02-24T06:42:18.605Z,-1.34
2024-02-24T06:43:21.037Z,-1.23
2024-02-24T06:44:24.089Z,-1.22
2024-02-24T06:45:26.114Z,-1.19
2024-02-24T06:46:29.093Z,-1.12
2024-02-24T06:47:31.148Z,-1.07
2024-02-24T06:48:34.471Z,-1.00
2024-02-24T06:49:36.576Z,-0.96
2024-02-24T06:50:40.988Z,-0.92
2024-02-24T06:51:43.865Z,-0.88
2024-02-24T06:52:47.067Z,-0.81
2024-02-24T06:53:49.380Z,-0.68
2024-02-24T06:54:52.518Z,-0.61
2024-02-24T06:55:54.664Z,-0.48
2024-02-24T06:57:01.157Z,-0.31
2024-02-24T06:58:03.590Z,-0.26
2024-02-24T06:59:07.876Z,-0.17
2024-02-24T07:00:13.123Z,-0.07
2024-02-24T07:01:22.780Z,-0.10
2024-02-24T07:02:24.897Z,-0.01
2024-02-24T07:03:27.951Z,0.03
2024-02-24T07:04:31.858Z,0.04
2024-02-24T07:05:34.875Z,0.09
2024-02-24T07:06:38.705Z,0.29
2024-02-24T07:07:42.853Z,0.38
2024-02-24T07:08:45.002Z,0.43
2024-02-24T07:09:48.568Z,0.67
2024-02-24T07:10:50.954Z,0.65
2024-02-24T07:11:54.011Z,0.79
2024-02-24T07:12:56.156Z,0.85
2024-02-24T07:13:59.090Z,1.08
2024-02-24T07:15:01.102Z,1.03
2024-02-24T07:16:04.132Z,1.11
2024-02-24T07:17:07.576Z,1.11
2024-02-24T07:18:10.761Z,1.16
2024-02-24T07:19:12.781Z,1.27
2024-02-24T07:20:16.080Z,1.27
2024-02-24T07:21:18.317Z,1.33
2024-02-24T07:22:23.089Z,1.41
2024-02-24T07:23:25.376Z,1.45
2024-02-24T07:24:28.385Z,1.52
2024-02-24T07:25:30.357Z,1.65
2024-02-24T07:26:33.342Z,1.66
2024-02-24T07:27:35.707Z,1.74
2024-02-24T07:28:38.651Z,1.88
2024-02-24T07:29:40.856Z,1.95
2024-02-24T07:30:43.867Z,1.98
2024-02-24T07:31:47.001Z,2.16
2024-02-24T07:32:50.141Z,2.23
2024-02-24T07:33:52.426Z,2.25
2024-02-24T07:34:56.640Z,2.29
2024-02-24T07:35:58.852Z,2.35
2024-02-24T07:37:02.941Z,2.28
2024-02-24T07:38:06.388Z,2.38
2024-02-24T07:39:09.394Z,2.40
2024-02-24T07:40:12.431Z,2.39
2024-02-24T07:41:15.514Z,2.53
2024-02-24T07:42:17.810Z,2.53
2024-02-24T07:43:20.932Z,2.64
2024-02-24T07:44:23.111Z,2.62
2024-02-24T07:45:26.685Z,2.64
2024-02-24T07:46:30.557Z,2.67
2024-02-24T07:47:33.608Z,2.64
2024-02-24T07:48:35.456Z,2.65
2024-02-24T07:49:38.701Z,2.71
2024-02-24T07:50:40.887Z,2.74
2024-02-24T07:51:44.344Z,2.91
2024-02-24T07:52:47.895Z,2.96
2024-02-24T07:53:52.432Z,2.89
2024-02-24T07:54:54.678Z,2.88
2024-02-24T07:55:57.758Z,2.91
2024-02-24T07:56:59.968Z,2.89
2024-02-24T07:58:02.941Z,2.84
2024-02-24T07:59:05.065Z,2.81
2024-02-24T08:00:09.860Z,2.79
2024-02-24T08:01:12.078Z,2.87
2024-02-24T08:02:15.134Z,2.86
2024-02-24T08:03:17.168Z,2.90
2024-02-24T08:04:21.048Z,2.88
2024-02-24T08:05:22.959Z,2.97
2024-02-24T08:06:26.017Z,3.13
2024-02-24T08:07:28.680Z,3.28
2024-02-24T08:08:32.274Z,3.37
2024-02-24T08:09:35.823Z,3.27
2024-02-24T08:10:38.812Z,3.13
2024-02-24T08:11:41.877Z,3.23
2024-02-24T08:12:45.249Z,3.23
2024-02-24T08:13:47.279Z,3.29
2024-02-24T08:14:50.886Z,3.37
2024-02-24T08:15:52.922Z,3.47
2024-02-24T08:16:55.900Z,3.49
2024-02-24T08:17:57.964Z,3.58
2024-02-24T08:19:01.265Z,3.84
2024-02-24T08:20:03.849Z,3.81
2024-02-24T08:21:08.206Z,3.87
2024-02-24T08:22:10.547Z,3.88
2024-02-24T08:23:13.535Z,4.18
2024-02-24T08:24:17.566Z,4.24
2024-02-24T08:25:21.797Z,4.32
2024-02-24T08:26:23.886Z,4.42
2024-02-24T08:27:26.951Z,4.39
2024-02-24T08:28:29.079Z,4.53
2024-02-24T08:29:33.049Z,4.58
2024-02-24T08:30:35.136Z,4.78
2024-02-24T08:31:38.576Z,5.06
2024-02-24T08:32:40.693Z,5.15
2024-02-24T08:33:42.952Z,5.15
2024-02-24T08:34:46.362Z,5.20
2024-02-24T08:35:48.491Z,5.22
2024-02-24T08:36:52.553Z,5.20
2024-02-24T08:37:54.515Z,5.28
2024-02-24T08:38:58.233Z,5.22
2024-02-24T08:40:00.365Z,5.28
2024-02-24T08:41:04.981Z,5.31
2024-02-24T08:42:07.076Z,5.22
2024-02-24T08:43:10.188Z,5.28
2024-02-24T08:44:12.233Z,5.32
2024-02-24T08:45:15.356Z,5.41
2024-02-24T08:46:17.519Z,5.51
2024-02-24T08:47:20.700Z,5.58
2024-02-24T08:48:22.782Z,5.61
2024-02-24T08:49:25.813Z,5.58
2024-02-24T08:50:27.965Z,5.68
2024-02-24T08:51:31.092Z,5.73
2024-02-24T08:52:38.981Z,5.76
2024-02-24T08:53:50.055Z,5.75
2024-02-24T08:54:52.261Z,5.63
2024-02-24T08:55:55.280Z,5.45
2024-02-24T08:56:58.625Z,5.47
2024-02-24T08:58:01.673Z,5.45
2024-02-24T08:59:04.011Z,5.36
2024-02-24T09:00:09.562Z,5.41
2024-02-24T09:01:13.430Z,5.45
2024-02-24T09:02:16.714Z,5.43
2024-02-24T09:03:20.429Z,5.43
2024-02-24T09:04:24.361Z,5.40
2024-02-24T09:05:26.522Z,5.47
2024-02-24T09:06:29.589Z,5.54
2024-02-24T09:07:33.183Z,5.58
2024-02-24T09:08:35.671Z,5.64
2024-02-24T09:09:38.673Z,5.67
2024-02-24T09:10:40.688Z,5.71
2024-02-24T09:11:44.719Z,5.80
2024-02-24T09:12:48.229Z,5.85
2024-02-24T09:13:51.236Z,5.84
2024-02-24T09:14:53.272Z,5.85
2024-02-24T09:15:55.349Z,5.78
2024-02-24T09:16:58.460Z,5.78
2024-02-24T09:18:00.665Z,5.83
2024-02-24T09:19:04.135Z,5.89
2024-02-24T09:20:09.909Z,5.92
2024-02-24T09:21:13.476Z,6.01
2024-02-24T09:22:15.577Z,6.00
2024-02-24T09:23:18.591Z,6.03
2024-02-24T09:24:20.607Z,5.99
2024-02-24T09:25:23.586Z,6.03
2024-02-24T09:26:25.724Z,6.06
2024-02-24T09:27:28.705Z,6.07
2024-02-24T09:28:32.188Z,6.04
2024-02-24T09:29:35.172Z,6.07
2024-02-24T09:30:37.346Z,6.09
2024-02-24T09:31:42.396Z,6.19
2024-02-24T09:32:44.508Z,6.25
2024-02-24T09:33:51.270Z,6.32
2024-02-24T09:34:53.485Z,6.33
2024-02-24T09:35:56.574Z,6.36
2024-02-24T09:36:58.639Z,6.36
2024-02-24T09:38:01.594Z,6.40
2024-02-24T09:39:04.300Z,6.43
2024-02-24T09:40:09.756Z,6.37
2024-02-24T09:41:11.950Z,6.41
2024-02-24T09:42:14.955Z,6.48
2024-02-24T09:43:17.217Z,6.43
2024-02-24T09:44:21.636Z,6.59
2024-02-24T09:45:25.990Z,6.62
2024-02-24T09:46:30.615Z,6.62
2024-02-24T09:47:33.553Z,6.71
2024-02-24T09:48:38.005Z,6.62
2024-02-24T09:49:40.785Z,6.68
2024-02-24T09:50:44.025Z,6.71
2024-02-24T09:51:48.228Z,6.75
2024-02-24T09:52:51.198Z,6.83
2024-02-24T09:53:53.330Z,6.97
2024-02-24T09:54:56.438Z,7.02
2024-02-24T09:56:00.949Z,6.99
2024-02-24T09:57:05.395Z,6.94
2024-02-24T09:58:10.405Z,6.90
2024-02-24T09:59:14.032Z,6.82
2024-02-24T10:00:18.069Z,6.85
2024-02-24T10:01:21.262Z,6.82
2024-02-24T10:02:23.336Z,6.77
2024-02-24T10:03:27.212Z,6.82
2024-02-24T10:04:29.282Z,6.94
2024-02-24T10:05:32.365Z,6.93
2024-02-24T10:06:35.343Z,6.85
2024-02-24T10:07:38.419Z,6.81
2024-02-24T10:08:40.441Z,6.85
2024-02-24T10:09:43.418Z,6.91
2024-02-24T10:10:45.516Z,6.87
2024-02-24T10:11:49.541Z,6.81
2024-02-24T10:12:59.124Z,7.04
2024-02-24T10:14:02.088Z,7.03
2024-02-24T10:15:04.588Z,7.14
2024-02-24T10:16:09.782Z,6.88
2024-02-24T10:17:12.085Z,7.00
2024-02-24T10:18:17.282Z,7.12
2024-02-24T10:20:23.148Z,7.06
2024-02-24T10:21:26.161Z,7.12
2024-02-24T10:22:28.189Z,7.05
2024-02-24T10:23:31.173Z,6.92
2024-02-24T10:24:35.026Z,6.98
2024-02-24T10:25:38.209Z,7.13
2024-02-24T10:26:40.233Z,7.27
2024-02-24T10:27:44.955Z,7.34
2024-02-24T10:28:47.443Z,7.31
2024-02-24T10:29:51.819Z,7.57
2024-02-24T10:30:54.933Z,7.74
2024-02-24T10:31:58.469Z,7.66
2024-02-24T10:33:02.817Z,7.53
2024-02-24T10:34:05.408Z,7.66
2024-02-24T10:35:10.245Z,7.77
2024-02-24T10:36:12.608Z,7.96
2024-02-24T10:37:15.984Z,7.91
2024-02-24T10:38:28.514Z,8.08
2024-02-24T10:39:41.743Z,8.16
2024-02-24T10:40:44.089Z,7.99
2024-02-24T10:41:48.052Z,7.93
2024-02-24T10:42:51.310Z,7.92
2024-02-24T10:44:05.941Z,7.77
2024-02-24T10:45:17.401Z,8.02
2024-02-24T10:46:20.406Z,7.92
2024-02-24T10:47:24.242Z,7.94
2024-02-24T10:48:27.345Z,8.09
2024-02-24T10:49:30.037Z,8.07
2024-02-24T10:50:33.313Z,7.89
2024-02-24T10:51:38.044Z,7.92
2024-02-24T10:52:42.719Z,8.12
2024-02-24T10:53:58.834Z,7.85
2024-02-24T10:55:04.255Z,8.04
2024-02-24T10:56:08.028Z,8.06
2024-02-24T10:57:11.869Z,7.89
2024-02-24T10:58:19.253Z,7.68
2024-02-24T10:59:29.270Z,7.51
2024-02-24T11:00:32.903Z,7.70
2024-02-24T11:01:43.428Z,7.69
2024-02-24T11:02:47.462Z,7.80
2024-02-24T11:03:51.409Z,7.99
2024-02-24T11:04:53.734Z,7.96
2024-02-24T11:05:57.235Z,7.90
2024-02-24T11:07:01.772Z,8.04
2024-02-24T11:08:05.706Z,7.96
2024-02-24T11:09:14.622Z,8.29
2024-02-24T11:10:20.432Z,8.41
2024-02-24T11:11:22.449Z,8.69
2024-02-24T11:12:29.355Z,8.62
2024-02-24T11:13:34.401Z,8.83
2024-02-24T11:14:38.384Z,8.90
2024-02-24T11:15:41.485Z,8.92
2024-02-24T11:16:44.323Z,8.77
2024-02-24T11:17:50.740Z,8.68
2024-02-24T11:18:55.981Z,9.05
2024-02-24T11:19:59.140Z,8.67
2024-02-24T11:21:01.295Z,8.52
2024-02-24T11:22:05.075Z,8.67
2024-02-24T11:23:19.893Z,8.84
2024-02-24T11:24:22.050Z,8.92
2024-02-24T11:25:25.033Z,9.14
2024-02-24T11:26:31.233Z,9.12
2024-02-24T11:27:35.960Z,9.10
2024-02-24T11:28:38.216Z,9.15
2024-02-24T11:29:41.322Z,8.79
2024-02-24T11:30:44.039Z,8.68
2024-02-24T11:31:46.247Z,9.05
2024-02-24T11:32:53.469Z,9.15
2024-02-24T11:33:59.645Z,9.47
2024-02-24T11:35:03.240Z,9.81
2024-02-24T11:36:06.905Z,9.68
2024-02-24T11:37:09.814Z,9.18
2024-02-24T11:38:13.312Z,9.22
2024-02-24T11:39:16.723Z,9.55
2024-02-24T11:40:20.045Z,9.65
2024-02-24T11:41:22.971Z,9.78
2024-02-24T11:42:27.623Z,9.95
2024-02-24T11:43:30.496Z,9.99
2024-02-24T11:44:32.759Z,9.77
2024-02-24T11:45:37.605Z,9.99
2024-02-24T11:46:40.384Z,10.00
2024-02-24T11:47:43.490Z,10.13
2024-02-24T11:48:47.097Z,10.10
2024-02-24T11:49:50.707Z,10.13
2024-02-24T11:50:53.446Z,10.04
2024-02-24T11:51:56.640Z,9.73
2024-02-24T11:52:58.643Z,9.55
2024-02-24T11:54:01.884Z,9.83
2024-02-24T11:55:04.507Z,9.82
2024-02-24T11:56:08.149Z,9.71
2024-02-24T11:57:11.492Z,9.79
2024-02-24T11:58:14.988Z,9.90
2024-02-24T11:59:17.117Z,10.47
2024-02-24T12:00:22.296Z,10.84
2024-02-24T12:01:24.725Z,10.98
2024-02-24T12:02:28.187Z,11.71
2024-02-24T12:03:30.195Z,12.28
2024-02-24T12:04:34.922Z,12.80
2024-02-24T12:05:37.496Z,13.05
2024-02-24T12:06:39.613Z,13.53
2024-02-24T12:07:43.800Z,13.15
2024-02-24T12:08:46.520Z,13.06
2024-02-24T12:09:52.400Z,12.48
2024-02-24T12:10:54.936Z,11.74
2024-02-24T12:11:58.877Z,11.20
2024-02-24T12:13:00.993Z,10.87
2024-02-24T12:14:04.008Z,10.67
2024-02-24T12:15:08.621Z,10.35
2024-02-24T12:16:12.032Z,10.23
2024-02-24T12:17:14.082Z,10.22
2024-02-24T12:18:17.237Z,10.35
2024-02-24T12:19:19.589Z,10.77
2024-02-24T12:20:27.438Z,11.11
2024-02-24T12:21:29.476Z,11.60
2024-02-24T12:22:32.447Z,12.65
2024-02-24T12:23:38.005Z,13.24
2024-02-24T12:24:41.113Z,13.70
2024-02-24T12:25:45.408Z,13.74
2024-02-24T12:26:48.519Z,14.20
2024-02-24T12:27:50.630Z,14.11
2024-02-24T12:28:53.934Z,13.81
2024-02-24T12:29:56.021Z,13.81
2024-02-24T12:30:59.181Z,13.78
2024-02-24T12:32:01.360Z,13.89
2024-02-24T12:33:05.194Z,13.12
2024-02-24T12:34:07.567Z,13.22
2024-02-24T12:35:11.253Z,13.46
2024-02-24T12:36:15.787Z,12.88
2024-02-24T12:37:18.838Z,12.69
2024-02-24T12:38:20.834Z,12.82
2024-02-24T12:39:25.327Z,12.19
2024-02-24T12:40:28.974Z,10.88
2024-02-24T12:41:34.174Z,10.24
2024-02-24T12:42:40.381Z,10.66
2024-02-24T12:43:43.735Z,10.63
2024-02-24T12:44:45.796Z,10.35
2024-02-24T12:45:50.846Z,10.16
2024-02-24T12:46:53.932Z,10.00
2024-02-24T12:47:56.644Z,9.88
2024-02-24T12:48:59.855Z,9.47
2024-02-24T12:50:02.350Z,10.12
2024-02-24T12:51:05.555Z,9.77
2024-02-24T12:52:08.932Z,9.69
2024-02-24T12:53:11.893Z,10.05
2024-02-24T12:54:14.311Z,9.66
2024-02-24T12:55:17.058Z,9.74
2024-02-24T12:56:20.061Z,10.34
2024-02-24T12:57:22.154Z,10.28
2024-02-24T12:58:25.930Z,10.52
2024-02-24T12:59:29.770Z,9.96
2024-02-24T13:00:32.890Z,10.61
2024-02-24T13:01:34.931Z,10.92
2024-02-24T13:02:38.695Z,11.07
2024-02-24T13:03:40.605Z,11.21
2024-02-24T13:04:43.642Z,11.42
2024-02-24T13:05:45.809Z,12.40
2024-02-24T13:06:49.013Z,13.12
2024-02-24T13:07:53.165Z,13.32
2024-02-24T13:08:56.309Z,13.61
2024-02-24T13:09:58.517Z,14.26
2024-02-24T13:11:02.892Z,14.82
2024-02-24T13:12:06.626Z,14.94
2024-02-24T13:13:09.512Z,14.50
2024-02-24T13:14:11.471Z,13.74
2024-02-24T13:15:14.407Z,13.29
2024-02-24T13:16:16.442Z,13.72
2024-02-24T13:17:21.338Z,13.37
2024-02-24T13:18:23.810Z,12.80
2024-02-24T13:19:27.281Z,12.11
2024-02-24T13:20:29.487Z,12.70
2024-02-24T13:21:32.468Z,13.14
2024-02-24T13:22:34.570Z,13.42
2024-02-24T13:23:38.932Z,14.15
2024-02-24T13:24:40.999Z,14.36
2024-02-24T13:25:44.606Z,13.96
2024-02-24T13:26:46.694Z,13.75
2024-02-24T13:27:49.754Z,12.88
2024-02-24T13:28:51.711Z,12.23
2024-02-24T13:29:55.387Z,12.19
2024-02-24T13:30:57.209Z,12.88
2024-02-24T13:32:00.186Z,13.10
2024-02-24T13:33:02.936Z,12.57
2024-02-24T13:34:05.434Z,12.40
2024-02-24T13:35:09.668Z,12.72
2024-02-24T13:36:11.966Z,12.80
2024-02-24T13:37:16.074Z,12.10
2024-02-24T13:38:20.288Z,11.44
2024-02-24T13:39:24.878Z,11.49
2024-02-24T13:40:26.839Z,10.85
2024-02-24T13:41:30.048Z,10.86
2024-02-24T13:42:32.803Z,10.46
2024-02-24T13:43:35.846Z,10.64
2024-02-24T13:44:38.145Z,10.14